sensor_id;sensor_type;location;lat;lon;timestamp;P1;durP1;ratioP1;P2;durP2;ratioP2
47287;SDS011;33020;53.008;13.558;2022-08-21T00:01:41;5.70;;;5.03;;
47287;SDS011;33020;53.008;13.558;2022-08-21T00:04:09;5.53;;;5.03;;
47287;SDS011;33020;53.008;13.558;2022-08-21T00:06:36;6.32;;;5.28;;
47287;SDS011;33020;53.008;13.558;2022-08-21T00:09:04;7.68;;;5.00;;
47287;SDS011;33020;53.008;13.558;2022-08-21T00:11:32;7.15;;;4.97;;
47287;SDS011;33020;53.008;13.558;2022-08-21T00:14:01;6.28;;;5.20;;
47287;SDS011;33020;53.008;13.558;2022-08-21T00:16:28;5.95;;;4.60;;
47287;SDS011;33020;53.008;13.558;2022-08-21T00:18:55;5.80;;;5.05;;
47287;SDS011;33020;53.008;13.558;2022-08-21T00:21:22;5.60;;;4.88;;
47287;SDS011;33020;53.008;13.558;2022-08-21T00:23:48;6.07;;;5.05;;
47287;SDS011;33020;53.008;13.558;2022-08-21T00:26:15;8.07;;;5.13;;
47287;SDS011;33020;53.008;13.558;2022-08-21T00:28:42;5.82;;;4.93;;
47287;SDS011;33020;53.008;13.558;2022-08-21T00:31:09;6.32;;;5.28;;
47287;SDS011;33020;53.008;13.558;2022-08-21T00:33:35;6.68;;;5.25;;
47287;SDS011;33020;53.008;13.558;2022-08-21T00:36:02;6.70;;;5.40;;
47287;SDS011;33020;53.008;13.558;2022-08-21T00:38:33;6.68;;;4.63;;
47287;SDS011;33020;53.008;13.558;2022-08-21T00:41:01;6.05;;;5.07;;
47287;SDS011;33020;53.008;13.558;2022-08-21T00:43:51;5.88;;;4.72;;
47287;SDS011;33020;53.008;13.558;2022-08-21T00:46:18;7.50;;;4.63;;
47287;SDS011;33020;53.008;13.558;2022-08-21T00:48:45;7.38;;;4.68;;
47287;SDS011;33020;53.008;13.558;2022-08-21T00:51:14;6.63;;;4.60;;
47287;SDS011;33020;53.008;13.558;2022-08-21T00:53:45;6.43;;;4.80;;
47287;SDS011;33020;53.008;13.558;2022-08-21T00:56:19;4.50;;;4.10;;
47287;SDS011;33020;53.008;13.558;2022-08-21T00:58:47;8.65;;;4.90;;
47287;SDS011;33020;53.008;13.558;2022-08-21T01:01:20;10.13;;;4.28;;
47287;SDS011;33020;53.008;13.558;2022-08-21T01:03:47;10.07;;;4.35;;
47287;SDS011;33020;53.008;13.558;2022-08-21T01:06:15;6.65;;;4.63;;
47287;SDS011;33020;53.008;13.558;2022-08-21T01:08:42;5.00;;;4.10;;
47287;SDS011;33020;53.008;13.558;2022-08-21T01:11:13;4.72;;;4.00;;
47287;SDS011;33020;53.008;13.558;2022-08-21T01:13:42;6.22;;;3.83;;
47287;SDS011;33020;53.008;13.558;2022-08-21T01:16:13;6.30;;;4.50;;
47287;SDS011;33020;53.008;13.558;2022-08-21T01:18:45;5.32;;;3.95;;
47287;SDS011;33020;53.008;13.558;2022-08-21T01:21:17;7.40;;;4.43;;
47287;SDS011;33020;53.008;13.558;2022-08-21T01:23:54;5.78;;;4.22;;
47287;SDS011;33020;53.008;13.558;2022-08-21T01:26:23;6.10;;;4.00;;
47287;SDS011;33020;53.008;13.558;2022-08-21T01:29:12;6.32;;;3.75;;
47287;SDS011;33020;53.008;13.558;2022-08-21T01:31:42;7.68;;;4.38;;
47287;SDS011;33020;53.008;13.558;2022-08-21T01:34:10;8.38;;;4.20;;
47287;SDS011;33020;53.008;13.558;2022-08-21T01:36:37;7.85;;;4.50;;
47287;SDS011;33020;53.008;13.558;2022-08-21T01:39:06;4.80;;;3.97;;
47287;SDS011;33020;53.008;13.558;2022-08-21T01:41:33;5.47;;;4.15;;
47287;SDS011;33020;53.008;13.558;2022-08-21T01:44:00;7.93;;;4.15;;
47287;SDS011;33020;53.008;13.558;2022-08-21T01:46:29;4.40;;;4.00;;
47287;SDS011;33020;53.008;13.558;2022-08-21T01:48:56;4.40;;;4.00;;
47287;SDS011;33020;53.008;13.558;2022-08-21T01:51:23;5.47;;;4.35;;
47287;SDS011;33020;53.008;13.558;2022-08-21T01:53:49;6.55;;;4.65;;
47287;SDS011;33020;53.008;13.558;2022-08-21T01:56:16;4.50;;;3.33;;
47287;SDS011;33020;53.008;13.558;2022-08-21T01:58:44;6.05;;;3.92;;
47287;SDS011;33020;53.008;13.558;2022-08-21T02:01:12;7.18;;;3.70;;
47287;SDS011;33020;53.008;13.558;2022-08-21T02:03:39;6.18;;;3.42;;
47287;SDS011;33020;53.008;13.558;2022-08-21T02:06:07;4.72;;;3.55;;
47287;SDS011;33020;53.008;13.558;2022-08-21T02:08:38;6.20;;;4.10;;
47287;SDS011;33020;53.008;13.558;2022-08-21T02:11:04;5.53;;;4.15;;
47287;SDS011;33020;53.008;13.558;2022-08-21T02:13:31;6.05;;;4.63;;
47287;SDS011;33020;53.008;13.558;2022-08-21T02:15:58;7.63;;;4.38;;
47287;SDS011;33020;53.008;13.558;2022-08-21T02:18:25;8.02;;;4.28;;
47287;SDS011;33020;53.008;13.558;2022-08-21T02:20:52;4.78;;;3.40;;
47287;SDS011;33020;53.008;13.558;2022-08-21T02:23:21;5.93;;;4.28;;
47287;SDS011;33020;53.008;13.558;2022-08-21T02:26:00;5.47;;;3.75;;
47287;SDS011;33020;53.008;13.558;2022-08-21T02:28:29;5.90;;;4.43;;
47287;SDS011;33020;53.008;13.558;2022-08-21T02:30:56;5.78;;;4.15;;
47287;SDS011;33020;53.008;13.558;2022-08-21T02:33:23;7.45;;;3.78;;
47287;SDS011;33020;53.008;13.558;2022-08-21T02:35:52;6.80;;;3.58;;
47287;SDS011;33020;53.008;13.558;2022-08-21T02:38:21;4.15;;;3.38;;
47287;SDS011;33020;53.008;13.558;2022-08-21T02:40:49;5.50;;;3.92;;
47287;SDS011;33020;53.008;13.558;2022-08-21T02:43:21;8.82;;;4.40;;
47287;SDS011;33020;53.008;13.558;2022-08-21T02:45:49;5.57;;;3.88;;
47287;SDS011;33020;53.008;13.558;2022-08-21T02:48:18;4.78;;;3.40;;
47287;SDS011;33020;53.008;13.558;2022-08-21T02:50:50;5.70;;;3.90;;
47287;SDS011;33020;53.008;13.558;2022-08-21T02:53:18;5.10;;;3.80;;
47287;SDS011;33020;53.008;13.558;2022-08-21T02:55:47;5.78;;;3.80;;
47287;SDS011;33020;53.008;13.558;2022-08-21T02:58:22;6.18;;;4.18;;
47287;SDS011;33020;53.008;13.558;2022-08-21T03:00:51;6.38;;;3.80;;
47287;SDS011;33020;53.008;13.558;2022-08-21T03:03:19;9.27;;;4.15;;
47287;SDS011;33020;53.008;13.558;2022-08-21T03:05:47;8.27;;;3.85;;
47287;SDS011;33020;53.008;13.558;2022-08-21T03:08:14;5.97;;;3.58;;
47287;SDS011;33020;53.008;13.558;2022-08-21T03:10:42;5.35;;;3.40;;
47287;SDS011;33020;53.008;13.558;2022-08-21T03:13:11;5.38;;;3.97;;
47287;SDS011;33020;53.008;13.558;2022-08-21T03:15:37;4.57;;;3.75;;
47287;SDS011;33020;53.008;13.558;2022-08-21T03:18:04;5.75;;;3.90;;
47287;SDS011;33020;53.008;13.558;2022-08-21T03:20:32;4.43;;;3.85;;
47287;SDS011;33020;53.008;13.558;2022-08-21T03:23:00;4.60;;;3.72;;
47287;SDS011;33020;53.008;13.558;2022-08-21T03:25:27;4.00;;;3.50;;
47287;SDS011;33020;53.008;13.558;2022-08-21T03:28:07;6.53;;;4.00;;
47287;SDS011;33020;53.008;13.558;2022-08-21T03:30:39;4.63;;;3.80;;
47287;SDS011;33020;53.008;13.558;2022-08-21T03:33:06;5.00;;;4.28;;
47287;SDS011;33020;53.008;13.558;2022-08-21T03:35:33;5.97;;;3.85;;
47287;SDS011;33020;53.008;13.558;2022-08-21T03:38:00;6.43;;;4.40;;
47287;SDS011;33020;53.008;13.558;2022-08-21T03:40:26;4.50;;;4.10;;
47287;SDS011;33020;53.008;13.558;2022-08-21T03:42:53;4.80;;;3.92;;
47287;SDS011;33020;53.008;13.558;2022-08-21T03:45:20;6.32;;;3.65;;
47287;SDS011;33020;53.008;13.558;2022-08-21T03:47:55;6.55;;;4.57;;
47287;SDS011;33020;53.008;13.558;2022-08-21T03:50:27;6.50;;;4.03;;
47287;SDS011;33020;53.008;13.558;2022-08-21T03:52:57;6.07;;;4.05;;
47287;SDS011;33020;53.008;13.558;2022-08-21T03:55:24;6.57;;;4.30;;
47287;SDS011;33020;53.008;13.558;2022-08-21T03:57:52;4.22;;;3.83;;
47287;SDS011;33020;53.008;13.558;2022-08-21T04:00:19;4.65;;;4.20;;
47287;SDS011;33020;53.008;13.558;2022-08-21T04:02:47;4.78;;;3.80;;
47287;SDS011;33020;53.008;13.558;2022-08-21T04:05:14;7.03;;;4.32;;
47287;SDS011;33020;53.008;13.558;2022-08-21T04:07:57;4.53;;;4.13;;
47287;SDS011;33020;53.008;13.558;2022-08-21T04:10:25;5.68;;;4.30;;
47287;SDS011;33020;53.008;13.558;2022-08-21T04:12:54;6.43;;;4.70;;
47287;SDS011;33020;53.008;13.558;2022-08-21T04:15:22;6.03;;;4.47;;
47287;SDS011;33020;53.008;13.558;2022-08-21T04:17:49;5.18;;;4.13;;
47287;SDS011;33020;53.008;13.558;2022-08-21T04:20:17;7.65;;;4.75;;
47287;SDS011;33020;53.008;13.558;2022-08-21T04:22:47;6.88;;;4.53;;
47287;SDS011;33020;53.008;13.558;2022-08-21T04:25:17;6.93;;;4.65;;
47287;SDS011;33020;53.008;13.558;2022-08-21T04:27:45;8.88;;;5.30;;
47287;SDS011;33020;53.008;13.558;2022-08-21T04:30:13;7.03;;;4.75;;
47287;SDS011;33020;53.008;13.558;2022-08-21T04:32:45;6.13;;;4.55;;
47287;SDS011;33020;53.008;13.558;2022-08-21T04:35:15;5.03;;;4.13;;
47287;SDS011;33020;53.008;13.558;2022-08-21T04:37:43;6.60;;;5.13;;
47287;SDS011;33020;53.008;13.558;2022-08-21T04:40:11;8.75;;;5.20;;
47287;SDS011;33020;53.008;13.558;2022-08-21T04:42:43;5.53;;;4.32;;
47287;SDS011;33020;53.008;13.558;2022-08-21T04:45:24;7.47;;;4.78;;
47287;SDS011;33020;53.008;13.558;2022-08-21T04:47:56;5.32;;;4.53;;
47287;SDS011;33020;53.008;13.558;2022-08-21T04:50:34;5.03;;;3.95;;
47287;SDS011;33020;53.008;13.558;2022-08-21T04:53:12;6.22;;;4.30;;
47287;SDS011;33020;53.008;13.558;2022-08-21T04:55:40;8.63;;;4.70;;
47287;SDS011;33020;53.008;13.558;2022-08-21T04:58:08;5.63;;;3.95;;
47287;SDS011;33020;53.008;13.558;2022-08-21T05:00:36;7.80;;;4.57;;
47287;SDS011;33020;53.008;13.558;2022-08-21T05:03:03;6.35;;;3.80;;
47287;SDS011;33020;53.008;13.558;2022-08-21T05:05:32;5.22;;;3.85;;
47287;SDS011;33020;53.008;13.558;2022-08-21T05:08:00;5.07;;;4.00;;
47287;SDS011;33020;53.008;13.558;2022-08-21T05:10:27;5.95;;;4.22;;
47287;SDS011;33020;53.008;13.558;2022-08-21T05:12:54;4.88;;;3.58;;
47287;SDS011;33020;53.008;13.558;2022-08-21T05:15:21;5.57;;;4.07;;
47287;SDS011;33020;53.008;13.558;2022-08-21T05:17:48;6.25;;;4.15;;
47287;SDS011;33020;53.008;13.558;2022-08-21T05:20:25;4.05;;;3.63;;
47287;SDS011;33020;53.008;13.558;2022-08-21T05:22:52;4.60;;;3.88;;
47287;SDS011;33020;53.008;13.558;2022-08-21T05:25:19;6.45;;;3.92;;
47287;SDS011;33020;53.008;13.558;2022-08-21T05:27:48;6.18;;;4.22;;
47287;SDS011;33020;53.008;13.558;2022-08-21T05:30:18;4.38;;;3.20;;
47287;SDS011;33020;53.008;13.558;2022-08-21T05:32:45;6.32;;;4.10;;
47287;SDS011;33020;53.008;13.558;2022-08-21T05:35:12;6.38;;;3.58;;
47287;SDS011;33020;53.008;13.558;2022-08-21T05:37:39;5.85;;;3.90;;
47287;SDS011;33020;53.008;13.558;2022-08-21T05:40:06;6.18;;;3.60;;
47287;SDS011;33020;53.008;13.558;2022-08-21T05:42:52;4.72;;;3.83;;
47287;SDS011;33020;53.008;13.558;2022-08-21T05:45:21;4.97;;;3.30;;
47287;SDS011;33020;53.008;13.558;2022-08-21T05:48:13;6.40;;;3.40;;
47287;SDS011;33020;53.008;13.558;2022-08-21T05:50:41;4.43;;;3.58;;
47287;SDS011;33020;53.008;13.558;2022-08-21T05:53:09;4.45;;;3.30;;
47287;SDS011;33020;53.008;13.558;2022-08-21T05:55:36;4.05;;;3.35;;
47287;SDS011;33020;53.008;13.558;2022-08-21T06:00:37;4.90;;;3.65;;
47287;SDS011;33020;53.008;13.558;2022-08-21T06:03:04;6.30;;;3.92;;
47287;SDS011;33020;53.008;13.558;2022-08-21T06:05:30;6.35;;;4.22;;
47287;SDS011;33020;53.008;13.558;2022-08-21T06:08:03;4.47;;;2.97;;
47287;SDS011;33020;53.008;13.558;2022-08-21T06:10:30;4.40;;;3.13;;
47287;SDS011;33020;53.008;13.558;2022-08-21T06:12:57;3.90;;;3.20;;
47287;SDS011;33020;53.008;13.558;2022-08-21T06:15:25;6.68;;;3.30;;
47287;SDS011;33020;53.008;13.558;2022-08-21T06:17:53;5.28;;;3.53;;
47287;SDS011;33020;53.008;13.558;2022-08-21T06:20:20;5.15;;;3.13;;
47287;SDS011;33020;53.008;13.558;2022-08-21T06:22:47;7.45;;;3.40;;
47287;SDS011;33020;53.008;13.558;2022-08-21T06:25:13;7.50;;;3.35;;
47287;SDS011;33020;53.008;13.558;2022-08-21T06:27:41;5.78;;;3.00;;
47287;SDS011;33020;53.008;13.558;2022-08-21T06:30:08;6.30;;;2.50;;
47287;SDS011;33020;53.008;13.558;2022-08-21T06:32:36;7.45;;;2.85;;
47287;SDS011;33020;53.008;13.558;2022-08-21T06:35:04;5.78;;;2.88;;
47287;SDS011;33020;53.008;13.558;2022-08-21T06:37:32;10.35;;;2.67;;
47287;SDS011;33020;53.008;13.558;2022-08-21T06:39:59;6.63;;;3.25;;
47287;SDS011;33020;53.008;13.558;2022-08-21T06:42:26;7.47;;;2.83;;
47287;SDS011;33020;53.008;13.558;2022-08-21T06:44:54;7.80;;;2.95;;
47287;SDS011;33020;53.008;13.558;2022-08-21T06:47:21;8.35;;;2.67;;
47287;SDS011;33020;53.008;13.558;2022-08-21T06:49:48;6.00;;;2.58;;
47287;SDS011;33020;53.008;13.558;2022-08-21T06:52:15;3.97;;;2.65;;
47287;SDS011;33020;53.008;13.558;2022-08-21T06:54:42;5.43;;;2.70;;
47287;SDS011;33020;53.008;13.558;2022-08-21T06:57:09;4.38;;;2.38;;
47287;SDS011;33020;53.008;13.558;2022-08-21T06:59:36;5.03;;;2.47;;
47287;SDS011;33020;53.008;13.558;2022-08-21T07:02:03;5.90;;;2.72;;
47287;SDS011;33020;53.008;13.558;2022-08-21T07:04:30;5.32;;;2.45;;
47287;SDS011;33020;53.008;13.558;2022-08-21T07:06:56;5.93;;;2.45;;
47287;SDS011;33020;53.008;13.558;2022-08-21T07:09:23;3.83;;;2.50;;
47287;SDS011;33020;53.008;13.558;2022-08-21T07:11:51;5.32;;;2.72;;
47287;SDS011;33020;53.008;13.558;2022-08-21T07:14:19;4.38;;;2.67;;
47287;SDS011;33020;53.008;13.558;2022-08-21T07:16:46;3.85;;;2.40;;
47287;SDS011;33020;53.008;13.558;2022-08-21T07:19:14;5.10;;;2.20;;
47287;SDS011;33020;53.008;13.558;2022-08-21T07:21:41;5.95;;;2.80;;
47287;SDS011;33020;53.008;13.558;2022-08-21T07:24:08;4.43;;;2.58;;
47287;SDS011;33020;53.008;13.558;2022-08-21T07:26:35;2.90;;;2.05;;
47287;SDS011;33020;53.008;13.558;2022-08-21T07:29:02;3.50;;;2.40;;
47287;SDS011;33020;53.008;13.558;2022-08-21T07:31:29;4.80;;;2.60;;
47287;SDS011;33020;53.008;13.558;2022-08-21T07:33:57;6.10;;;2.70;;
47287;SDS011;33020;53.008;13.558;2022-08-21T07:36:24;7.53;;;2.50;;
47287;SDS011;33020;53.008;13.558;2022-08-21T07:38:51;3.47;;;1.95;;
47287;SDS011;33020;53.008;13.558;2022-08-21T07:41:20;8.82;;;2.70;;
47287;SDS011;33020;53.008;13.558;2022-08-21T07:43:48;5.38;;;2.65;;
47287;SDS011;33020;53.008;13.558;2022-08-21T07:46:18;7.90;;;2.25;;
47287;SDS011;33020;53.008;13.558;2022-08-21T07:48:46;5.07;;;2.13;;
47287;SDS011;33020;53.008;13.558;2022-08-21T07:51:13;4.45;;;2.03;;
47287;SDS011;33020;53.008;13.558;2022-08-21T07:53:41;3.15;;;2.00;;
47287;SDS011;33020;53.008;13.558;2022-08-21T07:56:08;3.38;;;2.17;;
47287;SDS011;33020;53.008;13.558;2022-08-21T07:58:37;4.63;;;2.10;;
47287;SDS011;33020;53.008;13.558;2022-08-21T08:01:05;6.18;;;2.85;;
47287;SDS011;33020;53.008;13.558;2022-08-21T08:03:32;3.50;;;1.92;;
47287;SDS011;33020;53.008;13.558;2022-08-21T08:05:59;3.50;;;2.22;;
47287;SDS011;33020;53.008;13.558;2022-08-21T08:08:27;5.72;;;2.08;;
47287;SDS011;33020;53.008;13.558;2022-08-21T08:10:55;2.80;;;1.52;;
47287;SDS011;33020;53.008;13.558;2022-08-21T08:13:23;5.68;;;2.58;;
47287;SDS011;33020;53.008;13.558;2022-08-21T08:15:50;6.13;;;2.05;;
47287;SDS011;33020;53.008;13.558;2022-08-21T08:18:17;5.32;;;2.55;;
47287;SDS011;33020;53.008;13.558;2022-08-21T08:20:45;4.53;;;1.83;;
47287;SDS011;33020;53.008;13.558;2022-08-21T08:23:13;3.17;;;1.80;;
47287;SDS011;33020;53.008;13.558;2022-08-21T08:25:40;4.45;;;2.03;;
47287;SDS011;33020;53.008;13.558;2022-08-21T08:28:07;5.72;;;2.20;;
47287;SDS011;33020;53.008;13.558;2022-08-21T08:30:43;4.47;;;1.88;;
47287;SDS011;33020;53.008;13.558;2022-08-21T08:33:11;3.60;;;2.10;;
47287;SDS011;33020;53.008;13.558;2022-08-21T08:35:38;3.80;;;1.90;;
47287;SDS011;33020;53.008;13.558;2022-08-21T08:38:07;2.65;;;1.60;;
47287;SDS011;33020;53.008;13.558;2022-08-21T08:41:09;3.92;;;1.95;;
47287;SDS011;33020;53.008;13.558;2022-08-21T08:43:39;5.30;;;2.25;;
47287;SDS011;33020;53.008;13.558;2022-08-21T08:46:11;3.45;;;1.63;;
47287;SDS011;33020;53.008;13.558;2022-08-21T08:48:55;2.95;;;1.83;;
47287;SDS011;33020;53.008;13.558;2022-08-21T08:51:29;4.35;;;1.77;;
47287;SDS011;33020;53.008;13.558;2022-08-21T08:54:03;4.03;;;1.60;;
47287;SDS011;33020;53.008;13.558;2022-08-21T08:56:36;4.38;;;1.88;;
47287;SDS011;33020;53.008;13.558;2022-08-21T08:59:22;3.88;;;2.03;;
47287;SDS011;33020;53.008;13.558;2022-08-21T09:01:59;2.80;;;1.75;;
47287;SDS011;33020;53.008;13.558;2022-08-21T09:04:26;5.25;;;2.45;;
47287;SDS011;33020;53.008;13.558;2022-08-21T09:09:40;6.53;;;2.22;;
47287;SDS011;33020;53.008;13.558;2022-08-21T09:12:33;4.78;;;1.95;;
47287;SDS011;33020;53.008;13.558;2022-08-21T09:23:22;4.05;;;1.92;;
47287;SDS011;33020;53.008;13.558;2022-08-21T09:28:31;3.35;;;2.15;;
47287;SDS011;33020;53.008;13.558;2022-08-21T09:31:00;2.38;;;1.80;;
47287;SDS011;33020;53.008;13.558;2022-08-21T09:33:29;6.28;;;1.77;;
47287;SDS011;33020;53.008;13.558;2022-08-21T09:35:56;4.03;;;2.05;;
47287;SDS011;33020;53.008;13.558;2022-08-21T09:38:30;4.63;;;1.80;;
47287;SDS011;33020;53.008;13.558;2022-08-21T09:41:03;2.17;;;1.52;;
47287;SDS011;33020;53.008;13.558;2022-08-21T09:43:32;4.57;;;1.77;;
47287;SDS011;33020;53.008;13.558;2022-08-21T09:46:07;4.22;;;1.70;;
47287;SDS011;33020;53.008;13.558;2022-08-21T09:48:48;1.42;;;1.33;;
47287;SDS011;33020;53.008;13.558;2022-08-21T09:51:19;4.22;;;2.08;;
47287;SDS011;33020;53.008;13.558;2022-08-21T09:53:50;6.38;;;1.95;;
47287;SDS011;33020;53.008;13.558;2022-08-21T09:56:19;3.13;;;1.85;;
47287;SDS011;33020;53.008;13.558;2022-08-21T09:59:27;2.30;;;1.40;;
47287;SDS011;33020;53.008;13.558;2022-08-21T10:05:15;3.38;;;1.73;;
47287;SDS011;33020;53.008;13.558;2022-08-21T10:07:44;4.07;;;1.80;;
47287;SDS011;33020;53.008;13.558;2022-08-21T10:10:17;4.82;;;1.90;;
47287;SDS011;33020;53.008;13.558;2022-08-21T10:18:41;2.85;;;1.60;;
47287;SDS011;33020;53.008;13.558;2022-08-21T10:27:14;3.88;;;1.65;;
47287;SDS011;33020;53.008;13.558;2022-08-21T10:29:47;2.13;;;1.70;;
47287;SDS011;33020;53.008;13.558;2022-08-21T10:32:43;4.10;;;1.80;;
47287;SDS011;33020;53.008;13.558;2022-08-21T10:35:29;2.53;;;1.63;;
47287;SDS011;33020;53.008;13.558;2022-08-21T10:44:18;2.90;;;1.83;;
47287;SDS011;33020;53.008;13.558;2022-08-21T10:49:55;10.73;;;2.13;;
47287;SDS011;33020;53.008;13.558;2022-08-21T10:56:01;3.75;;;1.92;;
47287;SDS011;33020;53.008;13.558;2022-08-21T10:58:43;4.28;;;2.22;;
47287;SDS011;33020;53.008;13.558;2022-08-21T11:01:14;2.65;;;1.95;;
47287;SDS011;33020;53.008;13.558;2022-08-21T11:03:48;3.55;;;1.73;;
47287;SDS011;33020;53.008;13.558;2022-08-21T11:09:14;3.83;;;1.90;;
47287;SDS011;33020;53.008;13.558;2022-08-21T11:12:30;3.85;;;2.03;;
47287;SDS011;33020;53.008;13.558;2022-08-21T11:15:37;3.92;;;2.25;;
47287;SDS011;33020;53.008;13.558;2022-08-21T11:18:37;4.70;;;2.28;;
47287;SDS011;33020;53.008;13.558;2022-08-21T11:24:17;4.70;;;2.00;;
47287;SDS011;33020;53.008;13.558;2022-08-21T11:29:51;3.70;;;2.03;;
47287;SDS011;33020;53.008;13.558;2022-08-21T11:43:22;2.65;;;2.00;;
47287;SDS011;33020;53.008;13.558;2022-08-21T11:46:44;5.10;;;2.15;;
47287;SDS011;33020;53.008;13.558;2022-08-21T11:49:00;3.90;;;2.03;;
47287;SDS011;33020;53.008;13.558;2022-08-21T11:54:03;2.67;;;1.83;;
47287;SDS011;33020;53.008;13.558;2022-08-21T11:56:38;3.90;;;1.90;;
47287;SDS011;33020;53.008;13.558;2022-08-21T11:59:11;3.67;;;1.80;;
47287;SDS011;33020;53.008;13.558;2022-08-21T12:01:47;2.97;;;1.80;;
47287;SDS011;33020;53.008;13.558;2022-08-21T12:06:54;2.67;;;1.83;;
47287;SDS011;33020;53.008;13.558;2022-08-21T12:17:38;2.72;;;1.77;;
47287;SDS011;33020;53.008;13.558;2022-08-21T12:20:25;3.75;;;1.77;;
47287;SDS011;33020;53.008;13.558;2022-08-21T12:25:42;3.15;;;1.90;;
47287;SDS011;33020;53.008;13.558;2022-08-21T12:28:29;3.10;;;1.67;;
47287;SDS011;33020;53.008;13.558;2022-08-21T12:30:57;3.40;;;2.08;;
47287;SDS011;33020;53.008;13.558;2022-08-21T12:36:06;2.53;;;1.85;;
47287;SDS011;33020;53.008;13.558;2022-08-21T12:38:43;2.97;;;1.70;;
47287;SDS011;33020;53.008;13.558;2022-08-21T12:41:19;5.15;;;1.42;;
47287;SDS011;33020;53.008;13.558;2022-08-21T12:43:51;1.73;;;1.48;;
47287;SDS011;33020;53.008;13.558;2022-08-21T12:46:33;2.67;;;1.67;;
47287;SDS011;33020;53.008;13.558;2022-08-21T12:49:07;3.55;;;1.42;;
47287;SDS011;33020;53.008;13.558;2022-08-21T12:54:41;1.77;;;1.40;;
47287;SDS011;33020;53.008;13.558;2022-08-21T12:57:17;1.67;;;1.40;;
47287;SDS011;33020;53.008;13.558;2022-08-21T12:59:45;1.50;;;1.20;;
47287;SDS011;33020;53.008;13.558;2022-08-21T13:02:17;1.65;;;1.20;;
47287;SDS011;33020;53.008;13.558;2022-08-21T13:04:49;7.43;;;1.75;;
47287;SDS011;33020;53.008;13.558;2022-08-21T13:07:21;1.30;;;1.10;;
47287;SDS011;33020;53.008;13.558;2022-08-21T13:12:46;1.38;;;1.08;;
47287;SDS011;33020;53.008;13.558;2022-08-21T13:15:13;2.28;;;1.30;;
47287;SDS011;33020;53.008;13.558;2022-08-21T13:17:49;1.75;;;1.15;;
47287;SDS011;33020;53.008;13.558;2022-08-21T13:20:24;1.67;;;1.13;;
47287;SDS011;33020;53.008;13.558;2022-08-21T13:22:54;1.55;;;1.30;;
47287;SDS011;33020;53.008;13.558;2022-08-21T13:25:21;1.90;;;1.40;;
47287;SDS011;33020;53.008;13.558;2022-08-21T13:28:14;3.13;;;1.35;;
47287;SDS011;33020;53.008;13.558;2022-08-21T13:30:41;1.85;;;1.20;;
47287;SDS011;33020;53.008;13.558;2022-08-21T13:33:10;2.00;;;1.35;;
47287;SDS011;33020;53.008;13.558;2022-08-21T13:35:46;2.35;;;1.27;;
47287;SDS011;33020;53.008;13.558;2022-08-21T13:38:15;1.77;;;1.10;;
47287;SDS011;33020;53.008;13.558;2022-08-21T13:40:55;3.22;;;1.30;;
47287;SDS011;33020;53.008;13.558;2022-08-21T13:43:25;2.33;;;1.30;;
47287;SDS011;33020;53.008;13.558;2022-08-21T13:45:55;2.05;;;1.20;;
47287;SDS011;33020;53.008;13.558;2022-08-21T13:48:22;2.55;;;1.67;;
47287;SDS011;33020;53.008;13.558;2022-08-21T13:50:52;2.05;;;1.35;;
47287;SDS011;33020;53.008;13.558;2022-08-21T13:55:59;1.70;;;1.30;;
47287;SDS011;33020;53.008;13.558;2022-08-21T13:58:31;1.63;;;1.20;;
47287;SDS011;33020;53.008;13.558;2022-08-21T14:01:00;2.60;;;1.60;;
47287;SDS011;33020;53.008;13.558;2022-08-21T14:03:41;2.85;;;1.40;;
47287;SDS011;33020;53.008;13.558;2022-08-21T14:06:22;2.38;;;1.27;;
47287;SDS011;33020;53.008;13.558;2022-08-21T14:09:07;2.07;;;1.30;;
47287;SDS011;33020;53.008;13.558;2022-08-21T14:11:38;2.45;;;1.40;;
47287;SDS011;33020;53.008;13.558;2022-08-21T14:14:16;1.38;;;1.02;;
47287;SDS011;33020;53.008;13.558;2022-08-21T14:16:53;5.00;;;1.65;;
47287;SDS011;33020;53.008;13.558;2022-08-21T14:19:47;2.75;;;1.40;;
47287;SDS011;33020;53.008;13.558;2022-08-21T14:25:13;2.13;;;1.63;;
47287;SDS011;33020;53.008;13.558;2022-08-21T14:27:44;1.92;;;1.38;;
47287;SDS011;33020;53.008;13.558;2022-08-21T14:30:17;1.98;;;1.52;;
47287;SDS011;33020;53.008;13.558;2022-08-21T14:33:01;2.78;;;1.20;;
47287;SDS011;33020;53.008;13.558;2022-08-21T14:35:29;2.22;;;1.48;;
47287;SDS011;33020;53.008;13.558;2022-08-21T14:37:59;2.40;;;1.10;;
47287;SDS011;33020;53.008;13.558;2022-08-21T14:40:25;2.45;;;1.20;;
47287;SDS011;33020;53.008;13.558;2022-08-21T14:42:53;2.45;;;1.40;;
47287;SDS011;33020;53.008;13.558;2022-08-21T14:45:26;2.45;;;1.50;;
47287;SDS011;33020;53.008;13.558;2022-08-21T14:47:56;1.85;;;1.20;;
47287;SDS011;33020;53.008;13.558;2022-08-21T14:50:24;1.98;;;1.40;;
47287;SDS011;33020;53.008;13.558;2022-08-21T14:52:53;1.88;;;1.33;;
47287;SDS011;33020;53.008;13.558;2022-08-21T14:55:20;2.80;;;1.45;;
47287;SDS011;33020;53.008;13.558;2022-08-21T14:57:48;2.83;;;1.20;;
47287;SDS011;33020;53.008;13.558;2022-08-21T15:00:20;3.00;;;1.60;;
47287;SDS011;33020;53.008;13.558;2022-08-21T15:03:11;2.08;;;1.52;;
47287;SDS011;33020;53.008;13.558;2022-08-21T15:05:38;2.38;;;1.15;;
47287;SDS011;33020;53.008;13.558;2022-08-21T15:08:04;1.90;;;1.42;;
47287;SDS011;33020;53.008;13.558;2022-08-21T15:10:31;1.83;;;1.20;;
47287;SDS011;33020;53.008;13.558;2022-08-21T15:12:59;1.98;;;1.48;;
47287;SDS011;33020;53.008;13.558;2022-08-21T15:15:27;3.13;;;1.48;;
47287;SDS011;33020;53.008;13.558;2022-08-21T15:17:55;2.58;;;1.70;;
47287;SDS011;33020;53.008;13.558;2022-08-21T15:20:24;3.58;;;1.83;;
47287;SDS011;33020;53.008;13.558;2022-08-21T15:22:51;1.80;;;1.55;;
47287;SDS011;33020;53.008;13.558;2022-08-21T15:25:18;3.03;;;1.45;;
47287;SDS011;33020;53.008;13.558;2022-08-21T15:27:44;2.45;;;1.42;;
47287;SDS011;33020;53.008;13.558;2022-08-21T15:30:11;4.10;;;2.08;;
47287;SDS011;33020;53.008;13.558;2022-08-21T15:32:41;1.98;;;1.20;;
47287;SDS011;33020;53.008;13.558;2022-08-21T15:35:08;3.05;;;1.75;;
47287;SDS011;33020;53.008;13.558;2022-08-21T15:37:35;2.13;;;1.40;;
47287;SDS011;33020;53.008;13.558;2022-08-21T15:40:04;2.22;;;1.35;;
47287;SDS011;33020;53.008;13.558;2022-08-21T15:42:37;2.85;;;1.33;;
47287;SDS011;33020;53.008;13.558;2022-08-21T15:45:05;2.08;;;1.48;;
47287;SDS011;33020;53.008;13.558;2022-08-21T15:47:33;3.28;;;1.98;;
47287;SDS011;33020;53.008;13.558;2022-08-21T15:50:02;1.95;;;1.48;;
47287;SDS011;33020;53.008;13.558;2022-08-21T15:52:30;2.03;;;1.35;;
47287;SDS011;33020;53.008;13.558;2022-08-21T15:54:57;2.30;;;1.40;;
47287;SDS011;33020;53.008;13.558;2022-08-21T15:57:24;4.38;;;1.42;;
47287;SDS011;33020;53.008;13.558;2022-08-21T15:59:56;2.13;;;1.70;;
47287;SDS011;33020;53.008;13.558;2022-08-21T16:02:25;4.40;;;1.50;;
47287;SDS011;33020;53.008;13.558;2022-08-21T16:04:54;2.95;;;1.42;;
47287;SDS011;33020;53.008;13.558;2022-08-21T16:07:21;2.08;;;1.63;;
47287;SDS011;33020;53.008;13.558;2022-08-21T16:09:48;3.28;;;1.30;;
47287;SDS011;33020;53.008;13.558;2022-08-21T16:12:28;2.22;;;1.27;;
47287;SDS011;33020;53.008;13.558;2022-08-21T16:14:59;2.90;;;1.67;;
47287;SDS011;33020;53.008;13.558;2022-08-21T16:17:29;3.47;;;1.70;;
47287;SDS011;33020;53.008;13.558;2022-08-21T16:20:02;6.10;;;2.43;;
47287;SDS011;33020;53.008;13.558;2022-08-21T16:22:30;3.55;;;1.80;;
47287;SDS011;33020;53.008;13.558;2022-08-21T16:25:13;2.08;;;1.30;;
47287;SDS011;33020;53.008;13.558;2022-08-21T16:27:43;2.40;;;1.70;;
47287;SDS011;33020;53.008;13.558;2022-08-21T16:30:12;3.05;;;1.52;;